Christine Anderson — WCN2606 — position and weather

sailwx.info

Track history (hours):
 
Tides and Currents Weather Stations Pressure Air Temp Water Temp Dewpoint Dewpoint Depression Visibility Wind Speed Wind Dir Waves Ship Positions

Christine Anderson

Owner: PIERCE, COUNTY OF, TACOMA, WA. More information available from US FCC via Universal Licensing System and Coast Guard Vessel Documentation Center.

Last reported at 2014-Nov-23 03:33 UTC. Time now 2014-Nov-23 03:39 UTC.
Position N 47°11' W 122°36'.

MMSI: 366659730.

Date/timePositionNaut miles runAvg speedWind from/ knotsBaromVisibWave heightAir tempDewpointWater temp
2014-Nov-23 03:33N 47°11' W 122°36'0 0.4
2014-Nov-23 02:33N 47°11' W 122°37'3 2.6
2014-Nov-23 01:33N 47°11' W 122°41'1 1.1
2014-Nov-23 00:32N 47°11' W 122°39'2 1.6
2014-Nov-22 23:33N 47°11' W 122°37'3 2.7
2014-Nov-22 22:33N 47°11' W 122°41'3 2.9
2014-Nov-22 21:30N 47°10' W 122°36'3 2.8
2014-Nov-22 20:33N 47°11' W 122°40'3 2.6
2014-Nov-22 19:33N 47°10' W 122°36'2 2.4
2014-Nov-22 18:33N 47°11' W 122°40'0 0.0
2014-Nov-22 17:33N 47°11' W 122°40'0 0.0
2014-Nov-22 16:33N 47°11' W 122°40'0 0.0
2014-Nov-22 15:33N 47°11' W 122°40'2 2.4
2014-Nov-22 14:33N 47°10' W 122°36'0 0.0
2014-Nov-22 13:33N 47°10' W 122°36'0 0.0
2014-Nov-22 07:03N 47°10' W 122°36'2 4.8
2014-Nov-22 06:33N 47°11' W 122°40'2 2.4
2014-Nov-22 05:33N 47°10' W 122°36'0 0.0
2014-Nov-22 04:33N 47°10' W 122°36'0 0.4
2014-Nov-22 03:33N 47°11' W 122°37'0 0.2
2014-Nov-22 02:33N 47°11' W 122°36'3 2.8
2014-Nov-22 01:33N 47°11' W 122°41'0 0.0
2014-Nov-22 00:33N 47°11' W 122°41'0 0.0
2014-Nov-21 23:33N 47°11' W 122°41'0 0.0
2014-Nov-21 22:32N 47°11' W 122°41'3 2.5
2014-Nov-21 21:19N 47°10' W 122°36'3 3.6
2014-Nov-21 20:33N 47°11' W 122°40'3 2.7
2014-Nov-21 19:32N 47°10' W 122°36'3 2.6
2014-Nov-21 18:33N 47°11' W 122°40'0 0.2
2014-Nov-21 17:33N 47°11' W 122°40'1 0.5
2014-Nov-21 16:33N 47°11' W 122°40'0 0.5
2014-Nov-21 15:33N 47°11' W 122°40'2 2.5
2014-Nov-21 14:33N 47°10' W 122°36'0 0.0
2014-Nov-21 13:32N 47°10' W 122°36'1 0.1
2014-Nov-21 05:33N 47°10' W 122°37'1 1.0
2014-Nov-21 04:33N 47°10' W 122°36'0 0.2
2014-Nov-21 03:33N 47°11' W 122°36'0 0.2
2014-Nov-21 02:33N 47°11' W 122°37'3 2.8
2014-Nov-21 01:33N 47°11' W 122°41'0 0.0
2014-Nov-21 00:34N 47°11' W 122°41'0 0.0
2014-Nov-20 23:31N 47°11' W 122°41'0 0.0
2014-Nov-20 22:33N 47°11' W 122°41'3 2.6
2014-Nov-20 21:23N 47°10' W 122°36'3 3.0
2014-Nov-20 20:33N 47°11' W 122°40'3 2.5
2014-Nov-20 19:33N 47°10' W 122°36'3 2.5
2014-Nov-20 18:33N 47°11' W 122°40'0 0.0
2014-Nov-20 17:33N 47°11' W 122°40'0 0.1
2014-Nov-20 16:33N 47°11' W 122°40'0 0.0
2014-Nov-20 15:33N 47°11' W 122°40'3 2.6
2014-Nov-20 14:33N 47°10' W 122°36'0 0.0
2014-Nov-20 13:33N 47°10' W 122°36'0 0.0
2014-Nov-20 04:18N 47°10' W 122°36'0 0.0
2014-Nov-20 03:32N 47°10' W 122°36'0 0.3
2014-Nov-20 02:33N 47°11' W 122°36'3 2.9
2014-Nov-20 01:33N 47°11' W 122°41'0 0.0
2014-Nov-20 00:33N 47°11' W 122°41'0 0.0
2014-Nov-19 23:33N 47°11' W 122°41'0 0.0
2014-Nov-19 22:33N 47°11' W 122°41'3 2.0
2014-Nov-19 21:04N 47°10' W 122°36'3 5.3
2014-Nov-19 20:33N 47°11' W 122°40'0 0.1
2014-Nov-19 17:33N 47°11' W 122°40'0 0.2
2014-Nov-19 16:33N 47°11' W 122°40'0 0.1
2014-Nov-19 15:33N 47°11' W 122°40'2 2.4
2014-Nov-19 14:33N 47°10' W 122°36'0 0.0
2014-Nov-19 13:33N 47°10' W 122°36'0 0.0
2014-Nov-19 04:18N 47°10' W 122°36'1 0.7
2014-Nov-19 03:33N 47°11' W 122°37'0 0.5
2014-Nov-19 02:31N 47°11' W 122°36'3 3.1
2014-Nov-19 01:33N 47°11' W 122°41'0 0.0
2014-Nov-19 00:33N 47°11' W 122°41'0 0.0
2014-Nov-18 23:27N 47°11' W 122°41'0 0.0
2014-Nov-18 22:28N 47°11' W 122°41'3 3.2
2014-Nov-18 21:31N 47°10' W 122°36'3 2.7
2014-Nov-18 20:33N 47°11' W 122°40'3 2.6
2014-Nov-18 19:33N 47°10' W 122°36'3 2.5
2014-Nov-18 18:32N 47°11' W 122°40'0 0.0
2014-Nov-18 17:32N 47°11' W 122°40'0 0.2
2014-Nov-18 16:33N 47°11' W 122°40'0 0.2
2014-Nov-18 15:33N 47°11' W 122°40'3 2.6
2014-Nov-18 14:33N 47°10' W 122°36'0 0.0
2014-Nov-18 13:33N 47°10' W 122°36'0 0.0
2014-Nov-18 04:18N 47°10' W 122°36'0 0.6
2014-Nov-18 03:33N 47°11' W 122°37'0 0.3
2014-Nov-18 02:32N 47°11' W 122°36'3 3.0
2014-Nov-18 01:33N 47°11' W 122°41'0 0.0
2014-Nov-18 00:33N 47°11' W 122°41'0 0.0
2014-Nov-17 23:32N 47°11' W 122°41'0 0.0
2014-Nov-17 22:34N 47°11' W 122°41'3 2.8
2014-Nov-17 21:30N 47°10' W 122°36'  
Track history (hours):
 
Tides and Currents Weather Stations Pressure Air Temp Water Temp Dewpoint Dewpoint Depression Visibility Wind Speed Wind Dir Waves Ship Positions

Christine Anderson

Owner: PIERCE, COUNTY OF, TACOMA, WA. More information available from US FCC via Universal Licensing System and Coast Guard Vessel Documentation Center.

Last reported at 2014-Nov-23 03:33 UTC. Time now 2014-Nov-23 03:39 UTC.
Position N 47°11' W 122°36'.

MMSI: 366659730.

Date/timePositionNaut miles runAvg speedWind from/ knotsBaromVisibWave heightAir tempDewpointWater temp
2014-Nov-23 03:33N 47°11' W 122°36'0 0.4
2014-Nov-23 02:33N 47°11' W 122°37'3 2.6
2014-Nov-23 01:33N 47°11' W 122°41'1 1.1
2014-Nov-23 00:32N 47°11' W 122°39'2 1.6
2014-Nov-22 23:33N 47°11' W 122°37'3 2.7
2014-Nov-22 22:33N 47°11' W 122°41'3 2.9
2014-Nov-22 21:30N 47°10' W 122°36'3 2.8
2014-Nov-22 20:33N 47°11' W 122°40'3 2.6
2014-Nov-22 19:33N 47°10' W 122°36'2 2.4
2014-Nov-22 18:33N 47°11' W 122°40'0 0.0
2014-Nov-22 17:33N 47°11' W 122°40'0 0.0
2014-Nov-22 16:33N 47°11' W 122°40'0 0.0
2014-Nov-22 15:33N 47°11' W 122°40'2 2.4
2014-Nov-22 14:33N 47°10' W 122°36'0 0.0
2014-Nov-22 13:33N 47°10' W 122°36'0 0.0
2014-Nov-22 07:03N 47°10' W 122°36'2 4.8
2014-Nov-22 06:33N 47°11' W 122°40'2 2.4
2014-Nov-22 05:33N 47°10' W 122°36'0 0.0
2014-Nov-22 04:33N 47°10' W 122°36'0 0.4
2014-Nov-22 03:33N 47°11' W 122°37'0 0.2
2014-Nov-22 02:33N 47°11' W 122°36'3 2.8
2014-Nov-22 01:33N 47°11' W 122°41'0 0.0
2014-Nov-22 00:33N 47°11' W 122°41'0 0.0
2014-Nov-21 23:33N 47°11' W 122°41'0 0.0
2014-Nov-21 22:32N 47°11' W 122°41'3 2.5
2014-Nov-21 21:19N 47°10' W 122°36'3 3.6
2014-Nov-21 20:33N 47°11' W 122°40'3 2.7
2014-Nov-21 19:32N 47°10' W 122°36'3 2.6
2014-Nov-21 18:33N 47°11' W 122°40'0 0.2
2014-Nov-21 17:33N 47°11' W 122°40'1 0.5
2014-Nov-21 16:33N 47°11' W 122°40'0 0.5
2014-Nov-21 15:33N 47°11' W 122°40'2 2.5
2014-Nov-21 14:33N 47°10' W 122°36'0 0.0
2014-Nov-21 13:32N 47°10' W 122°36'1 0.1
2014-Nov-21 05:33N 47°10' W 122°37'1 1.0
2014-Nov-21 04:33N 47°10' W 122°36'0 0.2
2014-Nov-21 03:33N 47°11' W 122°36'0 0.2
2014-Nov-21 02:33N 47°11' W 122°37'3 2.8
2014-Nov-21 01:33N 47°11' W 122°41'0 0.0
2014-Nov-21 00:34N 47°11' W 122°41'0 0.0
2014-Nov-20 23:31N 47°11' W 122°41'0 0.0
2014-Nov-20 22:33N 47°11' W 122°41'3 2.6
2014-Nov-20 21:23N 47°10' W 122°36'3 3.0
2014-Nov-20 20:33N 47°11' W 122°40'3 2.5
2014-Nov-20 19:33N 47°10' W 122°36'3 2.5
2014-Nov-20 18:33N 47°11' W 122°40'0 0.0
2014-Nov-20 17:33N 47°11' W 122°40'0 0.1
2014-Nov-20 16:33N 47°11' W 122°40'0 0.0
2014-Nov-20 15:33N 47°11' W 122°40'3 2.6
2014-Nov-20 14:33N 47°10' W 122°36'0 0.0
2014-Nov-20 13:33N 47°10' W 122°36'0 0.0
2014-Nov-20 04:18N 47°10' W 122°36'0 0.0
2014-Nov-20 03:32N 47°10' W 122°36'0 0.3
2014-Nov-20 02:33N 47°11' W 122°36'3 2.9
2014-Nov-20 01:33N 47°11' W 122°41'0 0.0
2014-Nov-20 00:33N 47°11' W 122°41'0 0.0
2014-Nov-19 23:33N 47°11' W 122°41'0 0.0
2014-Nov-19 22:33N 47°11' W 122°41'3 2.0
2014-Nov-19 21:04N 47°10' W 122°36'3 5.3
2014-Nov-19 20:33N 47°11' W 122°40'0 0.1
2014-Nov-19 17:33N 47°11' W 122°40'0 0.2
2014-Nov-19 16:33N 47°11' W 122°40'0 0.1
2014-Nov-19 15:33N 47°11' W 122°40'2 2.4
2014-Nov-19 14:33N 47°10' W 122°36'0 0.0
2014-Nov-19 13:33N 47°10' W 122°36'0 0.0
2014-Nov-19 04:18N 47°10' W 122°36'1 0.7
2014-Nov-19 03:33N 47°11' W 122°37'0 0.5
2014-Nov-19 02:31N 47°11' W 122°36'3 3.1
2014-Nov-19 01:33N 47°11' W 122°41'0 0.0
2014-Nov-19 00:33N 47°11' W 122°41'0 0.0
2014-Nov-18 23:27N 47°11' W 122°41'0 0.0
2014-Nov-18 22:28N 47°11' W 122°41'3 3.2
2014-Nov-18 21:31N 47°10' W 122°36'3 2.7
2014-Nov-18 20:33N 47°11' W 122°40'3 2.6
2014-Nov-18 19:33N 47°10' W 122°36'3 2.5
2014-Nov-18 18:32N 47°11' W 122°40'0 0.0
2014-Nov-18 17:32N 47°11' W 122°40'0 0.2
2014-Nov-18 16:33N 47°11' W 122°40'0 0.2
2014-Nov-18 15:33N 47°11' W 122°40'3 2.6
2014-Nov-18 14:33N 47°10' W 122°36'0 0.0
2014-Nov-18 13:33N 47°10' W 122°36'0 0.0
2014-Nov-18 04:18N 47°10' W 122°36'0 0.6
2014-Nov-18 03:33N 47°11' W 122°37'0 0.3
2014-Nov-18 02:32N 47°11' W 122°36'3 3.0
2014-Nov-18 01:33N 47°11' W 122°41'0 0.0
2014-Nov-18 00:33N 47°11' W 122°41'0 0.0
2014-Nov-17 23:32N 47°11' W 122°41'0 0.0
2014-Nov-17 22:34N 47°11' W 122°41'3 2.8
2014-Nov-17 21:30N 47°10' W 122°36'  

Dump ship's entire track history